Time;durP1;ratioP1;P1;durP2;ratioP2;P2;SDS_P1;SDS_P2;PMS_P1;PMS_P2;Temp;Humidity;BMP_temperature;BMP_pressure;BME280_temperature;BME280_humidity;BME280_pressure;Samples;Min_cycle;Max_cycle;Signal;HPM_P1;HPM_P2
2022/03/23 00:00:50;;;;;;;129.90;70.70;;;7.40;99.90;;;;;;5052947;28;20041;-63
2022/03/23 00:03:17;;;;;;;142.63;75.47;;;7.50;99.90;;;;;;5051930;28;20131;-65
2022/03/23 00:05:43;;;;;;;144.43;75.78;;;7.60;99.90;;;;;;5052798;28;20052;-63
2022/03/23 00:08:09;;;;;;;132.98;75.53;;;8.70;99.90;;;;;;5052805;28;20045;-63
2022/03/23 00:10:35;;;;;;;140.10;75.75;;;7.50;99.90;;;;;;5052681;28;20044;-63
2022/03/23 00:13:03;;;;;;;135.68;76.78;;;7.20;99.90;;;;;;5052717;28;20056;-64
2022/03/23 00:15:30;;;;;;;143.52;74.70;;;8.40;99.90;;;;;;5052678;28;20088;-63
2022/03/23 00:17:56;;;;;;;140.90;74.15;;;8.10;99.90;;;;;;5052614;28;20139;-63
2022/03/23 00:20:22;;;;;;;;;;;8.10;99.90;;;;;;5053046;28;20477;-63
2022/03/23 00:22:48;;;;;;;137.00;72.85;;;7.50;99.90;;;;;;5052616;28;20076;-63
2022/03/23 00:25:14;;;;;;;135.60;74.78;;;7.60;99.90;;;;;;5052494;28;20052;-62
2022/03/23 00:27:40;;;;;;;144.77;75.70;;;7.30;99.90;;;;;;5052526;28;20068;-63
2022/03/23 00:30:07;;;;;;;151.85;79.10;;;7.50;99.90;;;;;;5052394;28;20048;-63
2022/03/23 00:32:33;;;;;;;161.38;79.68;;;7.40;99.90;;;;;;5052549;28;20106;-63
2022/03/23 00:34:59;;;;;;;142.80;77.13;;;6.90;99.90;;;;;;5052790;28;20048;-63
2022/03/23 00:37:25;;;;;;;160.38;82.43;;;7.30;99.90;;;;;;5052430;28;20049;-63
2022/03/23 00:39:51;;;;;;;155.30;80.00;;;7.00;99.90;;;;;;5052421;28;20485;-63
2022/03/23 00:42:16;;;;;;;165.70;85.28;;;7.30;99.90;;;;;;5052095;28;20432;-63
2022/03/23 00:44:43;;;;;;;160.13;81.32;;;7.10;99.90;;;;;;5052016;28;20199;-63
2022/03/23 00:47:09;;;;;;;157.65;83.78;;;7.30;99.90;;;;;;5051852;28;20099;-63
2022/03/23 00:49:36;;;;;;;160.80;82.60;;;7.50;99.90;;;;;;5052334;28;20048;-63
2022/03/23 00:52:05;;;;;;;176.15;87.88;;;7.20;99.90;;;;;;5052230;28;20049;-64
2022/03/23 00:54:34;;;;;;;163.23;85.78;;;7.50;99.90;;;;;;5052001;28;20504;-63
2022/03/23 00:57:04;;;;;;;168.88;85.57;;;7.20;99.90;;;;;;5051185;28;20076;-63
2022/03/23 00:59:29;;;;;;;164.05;84.18;;;7.10;99.90;;;;;;5052252;28;20049;-63
2022/03/23 01:01:55;;;;;;;165.82;87.57;;;7.50;99.90;;;;;;5052247;28;20488;-63
2022/03/23 01:04:21;;;;;;;171.98;86.03;;;7.40;99.90;;;;;;5050932;28;20056;-63
2022/03/23 01:06:47;;;;;;;178.38;85.43;;;6.80;99.90;;;;;;5052186;28;20044;-63
2022/03/23 01:09:13;;;;;;;177.35;87.90;;;6.90;99.90;;;;;;5050936;28;20084;-63
2022/03/23 01:11:40;;;;;;;171.50;87.63;;;6.70;99.90;;;;;;5052018;28;20056;-63
2022/03/23 01:14:07;;;;;;;178.85;88.20;;;7.00;99.90;;;;;;5052053;28;20041;-63
2022/03/23 01:16:33;;;;;;;183.25;89.10;;;6.90;99.90;;;;;;5051726;28;20548;-64
2022/03/23 01:19:02;;;;;;;184.70;92.20;;;6.90;99.90;;;;;;5052043;28;20045;-63
2022/03/23 01:21:28;;;;;;;168.63;88.25;;;7.00;99.90;;;;;;5050742;28;20091;-63
2022/03/23 01:23:54;;;;;;;177.45;87.53;;;7.10;99.90;;;;;;5052030;28;20041;-63
2022/03/23 01:26:20;;;;;;;170.02;86.47;;;6.90;99.90;;;;;;5051921;28;20041;-63
2022/03/23 01:28:45;;;;;;;190.23;89.20;;;6.80;99.90;;;;;;5051931;28;20068;-63
2022/03/23 01:31:12;;;;;;;173.63;89.82;;;6.80;99.90;;;;;;5051819;28;20064;-63
2022/03/23 01:33:38;;;;;;;182.38;92.13;;;7.00;99.90;;;;;;5051929;28;20057;-63
2022/03/23 01:36:04;;;;;;;164.30;83.13;;;6.80;99.90;;;;;;5051857;28;20045;-63
2022/03/23 01:38:29;;;;;;;168.40;82.50;;;6.80;99.90;;;;;;5051882;28;20131;-63
2022/03/23 01:40:55;;;;;;;172.38;83.18;;;6.50;99.90;;;;;;5050606;28;20386;-63
2022/03/23 01:43:21;;;;;;;174.63;85.78;;;6.40;99.90;;;;;;5051741;28;20086;-63
2022/03/23 01:45:47;;;;;;;180.93;87.45;;;6.60;99.90;;;;;;5051754;28;20057;-63
2022/03/23 01:48:15;;;;;;;173.55;85.80;;;6.50;99.90;;;;;;5051705;28;20128;-62
2022/03/23 01:50:41;;;;;;;187.25;87.90;;;6.50;99.90;;;;;;5051646;28;20037;-62
2022/03/23 01:53:07;;;;;;;191.55;88.43;;;6.50;99.90;;;;;;5051807;28;20071;-63
2022/03/23 01:55:33;;;;;;;196.70;92.03;;;6.30;99.90;;;;;;5054534;28;20084;-63
2022/03/23 01:57:59;;;;;;;;;;;6.20;99.90;;;;;;5055687;28;20489;-63
2022/03/23 02:00:28;;;;;;;183.93;86.50;;;6.30;99.90;;;;;;5055448;28;19927;-63
2022/03/23 02:02:54;;;;;;;181.85;88.60;;;6.20;99.90;;;;;;5055174;28;20048;-64
2022/03/23 02:05:20;;;;;;;207.45;94.53;;;6.40;99.90;;;;;;5053857;28;20056;-63
2022/03/23 02:07:46;;;;;;;195.65;89.15;;;6.10;99.90;;;;;;5055168;28;20049;-63
2022/03/23 02:10:12;;;;;;;219.25;94.13;;;6.40;99.90;;;;;;5054632;28;20052;-63
2022/03/23 02:12:38;;;;;;;205.65;93.13;;;6.40;99.90;;;;;;5054964;28;20060;-63
2022/03/23 02:15:13;;;;;;;196.52;92.35;;;6.50;99.90;;;;;;5054952;28;20103;-63
2022/03/23 02:17:39;;;;;;;224.93;96.07;;;6.30;99.90;;;;;;5054880;28;20057;-63
2022/03/23 02:20:06;;;;;;;211.77;93.32;;;6.40;99.90;;;;;;5055101;28;20094;-63
2022/03/23 02:22:31;;;;;;;198.10;90.80;;;6.30;99.90;;;;;;5054861;28;20049;-63
2022/03/23 02:24:57;;;;;;;194.45;89.00;;;6.20;99.90;;;;;;5054801;28;20049;-63
2022/03/23 02:27:25;;;;;;;214.25;91.00;;;6.20;99.90;;;;;;5054658;28;20182;-65
2022/03/23 02:29:53;;;;;;;186.70;88.65;;;6.40;99.90;;;;;;5054654;28;20048;-63
2022/03/23 02:32:19;;;;;;;203.88;86.85;;;6.40;99.90;;;;;;5054500;28;20052;-63
2022/03/23 02:34:45;;;;;;;191.55;85.93;;;6.00;99.90;;;;;;5054586;28;20142;-63
2022/03/23 02:37:13;;;;;;;218.10;88.65;;;6.20;99.90;;;;;;5054615;28;20080;-63
2022/03/23 02:39:39;;;;;;;203.20;86.85;;;6.00;99.90;;;;;;5053270;28;20057;-63
2022/03/23 02:42:05;;;;;;;247.25;92.10;;;6.00;99.90;;;;;;5054455;28;20044;-63
2022/03/23 02:44:32;;;;;;;210.20;88.28;;;6.40;99.90;;;;;;5054354;28;20045;-63
2022/03/23 02:46:58;;;;;;;218.85;93.30;;;5.70;99.90;;;;;;5054461;28;20091;-63
2022/03/23 02:49:23;;;;;;;282.52;101.20;;;6.10;99.90;;;;;;5054602;28;20084;-65
2022/03/23 02:51:49;;;;;;;224.70;92.13;;;5.80;99.90;;;;;;5054241;28;20388;-63
2022/03/23 03:03:14;;;;;;;222.13;94.15;;;6.30;99.90;;;;;;5052994;28;20067;-63
2022/03/23 03:05:40;;;;;;;239.18;93.57;;;6.40;99.90;;;;;;5053872;28;20045;-63
2022/03/23 03:10:50;;;;;;;261.80;98.60;;;6.40;99.90;;;;;;5053844;28;20064;-63
2022/03/23 03:13:16;;;;;;;304.63;107.68;;;6.20;99.90;;;;;;5053843;28;20393;-63
2022/03/23 03:15:41;;;;;;;233.63;89.35;;;6.50;99.90;;;;;;5052778;28;20064;-63
2022/03/23 03:18:07;;;;;;;326.17;96.00;;;6.30;99.90;;;;;;5053774;28;20045;-63
2022/03/23 03:20:33;;;;;;;225.55;91.60;;;6.50;99.90;;;;;;5053693;28;20041;-63
2022/03/23 03:22:59;;;;;;;248.27;91.15;;;;;;;;;;5053908;28;20082;-62
2022/03/23 03:25:24;;;;;;;190.90;82.63;;;6.50;99.90;;;;;;5053559;28;20083;-63
2022/03/23 03:27:50;;;;;;;185.10;80.57;;;6.60;99.90;;;;;;5053569;28;20045;-63
2022/03/23 03:30:17;;;;;;;185.98;81.30;;;6.20;99.90;;;;;;5053464;28;20077;-63
2022/03/23 03:32:44;;;;;;;195.93;84.43;;;6.20;99.90;;;;;;5053462;28;20045;-63
2022/03/23 03:35:10;;;;;;;215.13;82.10;;;6.20;99.90;;;;;;5053395;28;20114;-62
2022/03/23 03:37:37;;;;;;;216.23;87.70;;;5.90;99.90;;;;;;5053352;28;20041;-63
2022/03/23 03:40:07;;;;;;;184.82;82.28;;;6.20;99.90;;;;;;5053315;28;20071;-62
2022/03/23 03:42:34;;;;;;;204.35;81.50;;;6.00;99.90;;;;;;5052667;28;20095;-63
2022/03/23 03:45:01;;;;;;;173.43;80.15;;;6.10;99.90;;;;;;5053097;28;20053;-62
2022/03/23 03:47:27;;;;;;;176.07;77.50;;;6.20;99.90;;;;;;5052948;28;20488;-63
2022/03/23 03:49:53;;;;;;;181.23;75.63;;;6.10;99.90;;;;;;5053164;28;20049;-63
2022/03/23 03:52:19;;;;;;;218.05;78.85;;;5.80;99.90;;;;;;5053105;28;20520;-63
2022/03/23 03:54:45;;;;;;;139.55;66.38;;;6.00;99.90;;;;;;5053077;28;20053;-63
2022/03/23 03:57:11;;;;;;;165.65;68.65;;;5.70;99.90;;;;;;5053015;28;20041;-62
2022/03/23 03:59:37;;;;;;;245.77;70.03;;;5.70;99.90;;;;;;5052972;28;20064;-63
2022/03/23 04:02:03;;;;;;;;;;;6.20;99.90;;;;;;5053420;28;20067;-62
2022/03/23 04:04:29;;;;;;;697.13;76.97;;;6.10;99.90;;;;;;5052869;28;20019;-63
2022/03/23 04:06:55;;;;;;;538.78;68.10;;;5.80;99.90;;;;;;5052865;28;20088;-63
2022/03/23 04:09:21;;;;;;;675.90;79.22;;;5.60;99.90;;;;;;5051620;28;20049;-63
2022/03/23 04:11:47;;;;;;;259.98;62.88;;;;;;;;;;5052696;28;20045;-63
2022/03/23 04:14:13;;;;;;;575.05;66.15;;;5.70;99.90;;;;;;5052711;28;20052;-63
2022/03/23 04:16:39;;;;;;;762.15;68.75;;;5.40;99.90;;;;;;5052215;28;20103;-63
2022/03/23 04:19:06;;;;;;;806.13;75.43;;;5.40;99.90;;;;;;5052746;28;20098;-64
2022/03/23 04:21:32;;;;;;;485.33;75.15;;;5.30;99.90;;;;;;5052602;28;20052;-63
2022/03/23 04:23:58;;;;;;;676.95;95.10;;;5.40;99.90;;;;;;5052606;28;20106;-63
2022/03/23 04:26:24;;;;;;;460.13;80.75;;;5.40;99.90;;;;;;5052625;28;20044;-63
2022/03/23 04:28:51;;;;;;;912.22;109.85;;;5.50;99.90;;;;;;5051360;28;20052;-64
2022/03/23 04:31:17;;;;;;;529.08;84.20;;;5.50;99.90;;;;;;5051405;28;20056;-63
2022/03/23 04:33:43;;;;;;;951.85;104.15;;;5.40;99.90;;;;;;5052496;28;20119;-63
2022/03/23 04:36:09;;;;;;;344.88;76.25;;;5.50;99.90;;;;;;5052472;28;20083;-62
2022/03/23 04:38:35;;;;;;;1061.90;110.93;;;5.30;99.90;;;;;;5052472;28;20150;-64
2022/03/23 04:41:03;;;;;;;451.73;83.05;;;;;;;;;;5052446;28;20579;-63
2022/03/23 04:43:29;;;;;;;448.33;73.95;;;5.70;99.90;;;;;;5052370;28;20078;-63
2022/03/23 04:45:55;;;;;;;525.38;75.25;;;5.50;99.90;;;;;;5052333;28;20057;-63
2022/03/23 04:48:21;;;;;;;596.55;86.78;;;5.60;99.90;;;;;;5052609;28;20048;-63
2022/03/23 04:50:48;;;;;;;302.80;71.82;;;5.40;99.90;;;;;;5052237;28;20037;-63
2022/03/23 04:53:14;;;;;;;268.55;73.82;;;5.50;99.90;;;;;;5052308;28;20557;-62
2022/03/23 04:55:40;;;;;;;;;;;5.50;99.90;;;;;;5052758;28;20127;-64
2022/03/23 04:58:06;;;;;;;271.60;74.68;;;5.30;99.90;;;;;;5052285;28;19982;-63
2022/03/23 05:00:33;;;;;;;528.45;78.57;;;5.40;99.90;;;;;;5052248;28;20037;-63
2022/03/23 05:02:58;;;;;;;216.65;66.90;;;5.40;99.90;;;;;;5052253;28;20425;-63
2022/03/23 05:05:24;;;;;;;169.75;68.63;;;5.40;99.90;;;;;;5052122;28;20051;-63
2022/03/23 05:07:50;;;;;;;159.88;65.78;;;5.50;99.90;;;;;;5052233;28;20048;-64
2022/03/23 05:10:16;;;;;;;174.05;71.65;;;5.30;99.90;;;;;;5051778;28;20045;-63
2022/03/23 05:12:43;;;;;;;228.57;74.93;;;5.40;99.90;;;;;;5052058;28;20048;-63
2022/03/23 05:15:10;;;;;;;182.65;66.13;;;5.30;99.90;;;;;;5052160;28;20120;-63
2022/03/23 05:17:36;;;;;;;189.85;73.32;;;5.70;99.90;;;;;;5052068;28;20136;-64
2022/03/23 05:20:03;;;;;;;;;;;5.40;99.90;;;;;;5052515;28;20052;-63
2022/03/23 05:22:28;;;;;;;228.85;77.85;;;5.50;99.90;;;;;;5052079;28;20027;-63
2022/03/23 05:24:54;;;;;;;185.45;74.05;;;5.40;99.90;;;;;;5052058;28;20128;-63
2022/03/23 05:27:20;;;;;;;208.65;72.70;;;5.30;99.90;;;;;;5051939;28;20052;-63
2022/03/23 05:29:46;;;;;;;212.02;71.85;;;5.40;99.90;;;;;;5053868;28;20052;-63
2022/03/23 05:32:16;;;;;;;233.98;67.63;;;5.30;99.90;;;;;;5055674;28;20045;-63
2022/03/23 05:34:45;;;;;;;218.30;79.07;;;5.30;99.90;;;;;;5055663;28;20133;-63
2022/03/23 05:37:12;;;;;;;156.57;69.60;;;;;;;;;;5055647;28;20052;-63
2022/03/23 05:39:39;;;;;;;188.85;80.90;;;5.20;99.90;;;;;;5055614;28;20041;-63
2022/03/23 05:42:06;;;;;;;241.48;89.20;;;5.50;99.90;;;;;;5055297;28;20501;-63
2022/03/23 05:44:33;;;;;;;237.40;87.32;;;5.30;99.90;;;;;;5054539;28;20063;-63
2022/03/23 05:46:59;;;;;;;220.13;85.78;;;5.40;99.90;;;;;;5054989;28;20065;-63
2022/03/23 05:49:24;;;;;;;227.60;89.80;;;5.40;99.90;;;;;;5055454;28;20057;-63
2022/03/23 05:51:50;;;;;;;236.10;85.38;;;5.60;99.90;;;;;;5055304;28;20041;-63
2022/03/23 05:54:17;;;;;;;191.98;76.82;;;5.50;99.90;;;;;;5055379;28;20401;-63
2022/03/23 05:56:43;;;;;;;238.23;81.95;;;5.80;99.90;;;;;;5055338;28;20123;-63
2022/03/23 05:59:08;;;;;;;270.20;87.60;;;5.50;99.90;;;;;;5054996;28;20132;-63
2022/03/23 06:01:35;;;;;;;306.65;82.88;;;5.30;99.90;;;;;;5055168;28;20084;-63
2022/03/23 06:04:00;;;;;;;465.65;76.60;;;5.50;99.90;;;;;;5055203;28;20049;-63
2022/03/23 06:06:26;;;;;;;452.33;76.30;;;5.30;99.90;;;;;;5055099;28;20171;-63
2022/03/23 06:08:52;;;;;;;195.88;76.18;;;5.10;99.90;;;;;;5053914;28;20119;-63
2022/03/23 06:11:17;;;;;;;161.65;71.68;;;5.50;99.90;;;;;;5055079;28;20045;-63
2022/03/23 06:13:44;;;;;;;124.75;63.28;;;;;;;;;;5054995;28;20044;-63
2022/03/23 06:16:10;;;;;;;215.70;82.53;;;5.30;99.90;;;;;;5054991;28;20535;-63
2022/03/23 06:18:37;;;;;;;223.00;89.65;;;5.20;99.90;;;;;;5054988;28;20049;-63
2022/03/23 06:21:03;;;;;;;;;;;5.50;99.90;;;;;;5055350;28;20081;-63
2022/03/23 06:23:29;;;;;;;223.95;93.35;;;5.80;99.90;;;;;;5054864;28;19971;-63
2022/03/23 06:25:55;;;;;;;237.80;95.72;;;5.90;99.90;;;;;;5054337;28;20508;-63
2022/03/23 06:28:21;;;;;;;254.90;101.40;;;6.00;99.90;;;;;;5054673;28;20041;-63
2022/03/23 06:30:47;;;;;;;288.52;105.38;;;6.10;99.90;;;;;;5054596;28;20041;-63
2022/03/23 06:33:13;;;;;;;294.83;103.65;;;6.20;99.90;;;;;;5054678;28;20071;-63
2022/03/23 06:35:38;;;;;;;266.65;94.70;;;6.20;99.90;;;;;;5054898;28;20056;-63
2022/03/23 06:38:04;;;;;;;276.48;100.03;;;6.40;99.90;;;;;;5054599;28;20041;-63
2022/03/23 06:40:30;;;;;;;184.85;82.13;;;6.00;99.90;;;;;;5054051;28;20041;-63
2022/03/23 06:42:55;;;;;;;196.38;81.55;;;6.50;99.90;;;;;;5054436;28;20045;-63
2022/03/23 06:45:21;;;;;;;251.98;90.45;;;5.80;99.90;;;;;;5054125;28;20421;-65
2022/03/23 06:47:47;;;;;;;199.65;85.20;;;6.20;99.90;;;;;;5054501;28;20045;-64
2022/03/23 06:50:13;;;;;;;179.40;81.95;;;6.30;99.90;;;;;;5054226;28;20095;-63
2022/03/23 06:52:39;;;;;;;196.13;85.72;;;6.30;99.90;;;;;;5053142;28;20041;-63
2022/03/23 06:55:05;;;;;;;229.13;88.15;;;6.30;99.90;;;;;;5053982;28;20049;-63
2022/03/23 06:57:31;;;;;;;;;;;6.40;99.90;;;;;;5053414;28;20045;-63
2022/03/23 06:59:57;;;;;;;185.10;82.50;;;6.10;99.90;;;;;;5054039;28;20368;-63
2022/03/23 07:02:23;;;;;;;175.45;76.72;;;6.40;99.90;;;;;;5052891;28;20041;-63
2022/03/23 07:04:48;;;;;;;175.15;82.13;;;6.40;99.90;;;;;;5054063;28;20049;-63
2022/03/23 07:07:14;;;;;;;184.07;85.43;;;6.60;99.90;;;;;;5050823;28;20167;-66
2022/03/23 07:09:41;;;;;;;173.18;82.63;;;6.70;99.90;;;;;;5046537;28;20049;-63
2022/03/23 07:12:11;;;;;;;171.20;82.65;;;6.90;99.90;;;;;;5052678;28;20045;-63
2022/03/23 07:14:39;;;;;;;174.52;85.45;;;6.90;99.90;;;;;;5052671;28;20045;-63
2022/03/23 07:17:06;;;;;;;185.35;89.07;;;7.20;99.90;;;;;;5051462;28;20045;-63
2022/03/23 07:19:31;;;;;;;170.90;85.40;;;6.70;99.90;;;;;;5052634;28;20119;-63
2022/03/23 07:21:57;;;;;;;181.88;88.28;;;7.40;99.90;;;;;;5052336;28;20497;-64
2022/03/23 07:24:23;;;;;;;177.13;85.55;;;7.40;99.90;;;;;;5052160;28;20047;-63
2022/03/23 07:26:49;;;;;;;165.10;84.00;;;7.60;99.90;;;;;;5051228;28;20110;-64
2022/03/23 07:29:15;;;;;;;169.52;84.53;;;7.30;99.90;;;;;;5052459;28;20049;-63
2022/03/23 07:31:41;;;;;;;166.95;86.65;;;7.80;99.90;;;;;;5051991;28;20049;-63
2022/03/23 07:34:07;;;;;;;155.63;82.00;;;9.10;99.90;;;;;;5045848;28;20149;-63
2022/03/23 07:36:34;;;;;;;154.43;81.72;;;7.60;99.90;;;;;;5049942;28;20130;-63
2022/03/23 07:39:00;;;;;;;;;;;8.00;99.90;;;;;;5053952;28;20562;-64
2022/03/23 07:41:25;;;;;;;152.15;80.85;;;8.00;99.90;;;;;;5050722;28;19920;-65
2022/03/23 07:43:51;;;;;;;155.02;79.78;;;8.50;99.90;;;;;;5052295;28;20389;-64
2022/03/23 07:46:20;;;;;;;136.93;74.35;;;8.90;99.90;;;;;;5049600;28;20131;-70
2022/03/23 07:48:45;;;;;;;133.73;73.55;;;8.50;99.90;;;;;;5050612;28;20053;-64
2022/03/23 07:51:11;;;;;;;126.40;70.35;;;8.90;99.90;;;;;;5051466;28;20064;-63
2022/03/23 07:53:37;;;;;;;125.25;72.43;;;9.80;99.90;;;;;;5049788;28;20049;-64
2022/03/23 07:56:03;;;;;;;122.93;70.65;;;8.80;99.90;;;;;;5051761;28;20052;-65
2022/03/23 07:58:29;;;;;;;126.68;69.53;;;8.90;99.90;;;;;;5050063;28;20474;-64
2022/03/23 08:00:55;;;;;;;122.85;68.43;;;8.90;99.90;;;;;;5049812;28;20103;-63
2022/03/23 08:03:21;;;;;;;106.93;64.07;;;8.80;99.90;;;;;;5051406;28;20045;-63
2022/03/23 08:05:47;;;;;;;104.47;59.67;;;9.30;99.90;;;;;;5051692;28;20124;-63
2022/03/23 08:08:13;;;;;;;106.00;59.10;;;9.80;99.90;;;;;;5049346;28;20087;-64
2022/03/23 08:10:43;;;;;;;96.80;58.70;;;9.00;99.90;;;;;;5051312;28;20085;-64
2022/03/23 08:13:12;;;;;;;105.07;60.17;;;9.30;99.90;;;;;;5051480;28;20415;-69
2022/03/23 08:15:39;;;;;;;100.80;60.65;;;10.30;99.90;;;;;;5047628;28;20488;-64
2022/03/23 08:18:06;;;;;;;109.07;61.17;;;9.90;99.90;;;;;;5050045;28;20044;-62
2022/03/23 08:20:32;;;;;;;93.05;57.72;;;11.50;99.90;;;;;;5051246;28;20045;-63
2022/03/23 08:22:59;;;;;;;93.82;54.08;;;10.00;99.90;;;;;;5042446;28;20091;-65
2022/03/23 08:25:25;;;;;;;77.85;49.67;;;10.10;99.90;;;;;;5039997;28;20048;-65
2022/03/23 08:27:51;;;;;;;76.28;48.10;;;9.90;99.90;;;;;;5051319;28;20481;-65
2022/03/23 08:30:16;;;;;;;81.70;48.80;;;10.50;99.90;;;;;;5052528;28;20044;-65
2022/03/23 08:32:42;;;;;;;86.72;52.35;;;12.00;99.90;;;;;;5052913;28;20397;-65
2022/03/23 08:35:08;;;;;;;75.95;47.00;;;10.70;99.90;;;;;;5052577;28;20436;-66
2022/03/23 08:37:34;;;;;;;76.32;45.95;;;11.10;99.90;;;;;;5052576;28;20045;-65
2022/03/23 08:40:00;;;;;;;75.07;43.90;;;12.10;99.90;;;;;;5052471;28;20049;-65
2022/03/23 08:42:25;;;;;;;70.63;44.80;;;12.40;99.90;;;;;;5051394;28;20269;-65
2022/03/23 08:44:51;;;;;;;74.00;44.33;;;11.80;99.90;;;;;;5052428;28;20040;-65
2022/03/23 08:47:17;;;;;;;;;;;12.10;99.90;;;;;;5052413;28;20065;-65
2022/03/23 08:49:44;;;;;;;65.10;40.65;;;11.40;99.90;;;;;;5052135;28;19931;-66
2022/03/23 08:52:10;;;;;;;70.95;40.30;;;11.80;99.90;;;;;;5052335;28;20045;-65
2022/03/23 08:54:36;;;;;;;64.82;39.45;;;11.70;99.90;;;;;;5051429;28;20088;-65
2022/03/23 08:57:01;;;;;;;69.18;41.78;;;12.10;99.90;;;;;;5052283;28;20144;-64
2022/03/23 08:59:27;;;;;;;64.20;40.80;;;11.90;99.90;;;;;;5052325;28;20132;-65
2022/03/23 09:01:53;;;;;;;60.88;38.20;;;12.30;99.90;;;;;;5052281;28;20041;-64
2022/03/23 09:04:19;;;;;;;60.90;37.67;;;12.30;99.90;;;;;;5055121;28;20092;-65
2022/03/23 09:06:44;;;;;;;63.17;39.40;;;13.20;99.90;;;;;;5056345;28;20149;-65
2022/03/23 09:09:10;;;;;;;63.92;36.33;;;12.20;99.90;;;;;;5056276;28;20049;-65
2022/03/23 09:11:36;;;;;;;51.40;33.83;;;12.60;99.90;;;;;;5054953;28;20045;-64
2022/03/23 09:14:01;;;;;;;56.35;32.25;;;12.70;99.90;;;;;;5055047;28;20040;-66
2022/03/23 09:16:27;;;;;;;53.05;31.98;;;12.60;99.90;;;;;;5056474;28;20064;-65
2022/03/23 09:18:53;;;;;;;52.83;33.13;;;13.10;99.90;;;;;;5056172;28;20049;-65
2022/03/23 09:21:19;;;;;;;56.60;31.55;;;13.70;99.90;;;;;;5056070;28;20053;-65
2022/03/23 09:23:45;;;;;;;50.15;29.88;;;12.90;99.90;;;;;;5055988;28;20041;-65
2022/03/23 09:26:11;;;;;;;54.42;29.42;;;13.40;99.90;;;;;;5055980;28;20041;-65
2022/03/23 09:28:38;;;;;;;53.75;31.08;;;13.10;99.90;;;;;;5055978;28;20044;-64
2022/03/23 09:31:04;;;;;;;50.63;30.48;;;13.30;99.90;;;;;;5055862;28;20041;-68
2022/03/23 09:33:30;;;;;;;46.72;31.23;;;13.80;99.90;;;;;;5055463;28;20041;-66
2022/03/23 09:35:57;;;;;;;50.67;32.40;;;13.70;99.90;;;;;;5055623;28;20049;-64
2022/03/23 09:38:22;;;;;;;;;;;13.60;99.90;;;;;;5056038;28;20045;-64
2022/03/23 09:40:51;;;;;;;49.83;30.35;;;14.00;99.90;;;;;;5055662;28;19932;-64
2022/03/23 09:43:21;;;;;;;50.83;31.02;;;14.10;99.90;;;;;;5055488;28;20049;-64
2022/03/23 09:45:47;;;;;;;46.35;29.88;;;14.70;99.90;;;;;;5037258;28;20056;-64
2022/03/23 09:48:16;;;;;;;49.13;30.85;;;14.30;99.90;;;;;;5055419;28;20053;-64
2022/03/23 09:50:45;;;;;;;47.08;30.05;;;14.50;99.90;;;;;;5055416;28;20476;-64
2022/03/23 09:53:12;;;;;;;47.65;28.00;;;14.20;99.90;;;;;;5055298;28;20060;-64
2022/03/23 09:55:38;;;;;;;42.55;27.83;;;14.40;99.90;;;;;;5055218;28;20396;-64
2022/03/23 09:58:06;;;;;;;40.00;27.40;;;14.70;99.90;;;;;;5055145;28;20051;-65
2022/03/23 10:00:38;;;;;;;45.35;28.88;;;14.60;99.90;;;;;;5053847;28;20052;-64
2022/03/23 10:03:42;;;;;;;41.90;27.98;;;15.90;99.90;;;;;;5053691;28;20057;-65
2022/03/23 10:06:50;;;;;;;44.85;29.63;;;15.20;99.90;;;;;;5055195;28;20081;-64
2022/03/23 10:09:53;;;;;;;41.40;29.27;;;15.10;99.90;;;;;;5054137;28;20392;-64
2022/03/23 10:12:55;;;;;;;44.10;30.38;;;15.50;99.90;;;;;;5054885;28;20060;-65
2022/03/23 10:16:02;;;;;;;43.58;28.30;;;15.40;99.90;;;;;;5054116;28;20048;-64
2022/03/23 10:18:54;;;;;;;38.88;26.35;;;15.60;99.90;;;;;;5054927;28;20094;-64
2022/03/23 10:21:31;;;;;;;43.60;26.75;;;15.20;99.90;;;;;;5054870;28;20059;-65
2022/03/23 10:24:00;;;;;;;37.13;26.45;;;15.70;99.90;;;;;;5054798;28;20052;-64
2022/03/23 10:26:30;;;;;;;39.38;26.45;;;15.80;99.90;;;;;;5054732;28;20091;-64
2022/03/23 10:28:57;;;;;;;37.20;26.08;;;15.70;99.90;;;;;;5037027;28;20102;-64
2022/03/23 10:31:25;;;;;;;39.83;25.02;;;15.80;98.50;;;;;;5054586;28;20080;-64
2022/03/23 10:34:08;;;;;;;32.15;24.02;;;15.80;98.70;;;;;;5054365;28;20072;-63
2022/03/23 10:36:40;;;;;;;35.47;23.42;;;16.10;97.70;;;;;;5054572;28;20378;-64
2022/03/23 10:39:12;;;;;;;32.22;21.67;;;15.80;96.90;;;;;;5054531;28;20045;-64
2022/03/23 10:41:39;;;;;;;38.00;23.83;;;16.30;95.00;;;;;;5054447;28;20041;-63
2022/03/23 10:44:18;;;;;;;35.85;23.58;;;16.20;95.30;;;;;;5054440;28;20106;-65
2022/03/23 10:46:46;;;;;;;33.33;22.65;;;16.50;89.10;;;;;;5054552;28;20067;-64
2022/03/23 10:49:14;;;;;;;31.63;22.45;;;16.20;93.30;;;;;;5054410;28;20049;-63
2022/03/23 10:51:41;;;;;;;29.85;21.85;;;16.30;92.50;;;;;;5054311;28;20516;-64
2022/03/23 10:54:23;;;;;;;33.80;22.73;;;16.40;92.30;;;;;;5054389;28;20049;-63
2022/03/23 10:56:49;;;;;;;30.83;20.75;;;16.70;90.50;;;;;;5054321;28;20517;-63
2022/03/23 10:59:28;;;;;;;27.35;20.67;;;16.50;91.40;;;;;;5054234;28;20056;-65
2022/03/23 11:02:07;;;;;;;29.48;20.13;;;16.70;89.50;;;;;;5054257;28;20175;-64
2022/03/23 11:04:56;;;;;;;27.40;20.65;;;16.80;85.00;;;;;;5053867;28;20048;-64
2022/03/23 11:07:28;;;;;;;32.30;21.23;;;17.10;83.70;;;;;;5050963;28;20045;-65
2022/03/23 11:18:21;;;;;;;25.63;18.35;;;17.20;83.20;;;;;;5042341;28;20064;-64
2022/03/23 11:20:54;;;;;;;28.85;18.85;;;17.20;81.30;;;;;;5047523;28;20418;-64
2022/03/23 11:23:26;;;;;;;26.80;17.63;;;17.40;82.20;;;;;;5052200;28;20077;-65
2022/03/23 11:26:01;;;;;;;27.80;18.90;;;17.80;81.10;;;;;;5051825;28;20091;-64
2022/03/23 11:28:34;;;;;;;37.10;19.97;;;17.10;82.90;;;;;;5049661;28;20045;-64
2022/03/23 11:31:04;;;;;;;25.85;18.10;;;17.40;82.00;;;;;;5052206;28;20037;-64
2022/03/23 11:33:34;;;;;;;30.00;19.70;;;17.50;80.20;;;;;;5051714;28;20128;-65
2022/03/23 11:36:08;;;;;;;25.60;18.23;;;17.60;81.40;;;;;;5052317;28;20060;-65
2022/03/23 11:38:34;;;;;;;27.60;17.33;;;17.60;81.30;;;;;;5053215;28;20560;-64
2022/03/23 11:41:00;;;;;;;;;;;17.90;81.60;;;;;;5053759;28;20179;-63
2022/03/23 11:43:33;;;;;;;26.50;16.05;;;18.00;78.00;;;;;;5053285;28;20398;-64
2022/03/23 11:46:00;;;;;;;25.95;16.35;;;17.80;80.20;;;;;;5053375;28;20060;-64
2022/03/23 11:48:53;;;;;;;26.42;16.75;;;17.80;80.30;;;;;;5053224;28;20068;-64
2022/03/23 11:51:22;;;;;;;26.02;17.23;;;17.70;77.70;;;;;;5053079;28;20041;-63
2022/03/23 11:54:18;;;;;;;28.17;17.58;;;17.80;79.80;;;;;;5053029;28;20472;-64
2022/03/23 11:56:58;;;;;;;34.47;16.20;;;18.00;76.90;;;;;;5053077;28;20448;-64
2022/03/23 11:59:29;;;;;;;24.42;14.70;;;18.30;78.90;;;;;;5053209;28;20127;-64
2022/03/23 12:01:58;;;;;;;25.40;17.42;;;18.10;79.10;;;;;;5053088;28;20044;-64
2022/03/23 12:04:24;;;;;;;23.50;15.40;;;18.40;78.30;;;;;;5052808;28;20055;-64
2022/03/23 12:07:00;;;;;;;31.83;14.18;;;18.30;78.20;;;;;;5053040;28;20080;-63
2022/03/23 12:09:36;;;;;;;23.05;14.40;;;18.30;77.00;;;;;;5052837;28;20052;-64
2022/03/23 12:12:11;;;;;;;21.90;14.57;;;18.20;76.10;;;;;;5052742;28;20041;-64
2022/03/23 12:14:39;;;;;;;22.38;12.88;;;18.20;75.80;;;;;;5052960;28;20049;-64
2022/03/23 12:17:11;;;;;;;20.98;13.10;;;18.60;77.00;;;;;;5052724;28;20052;-64
2022/03/23 12:20:07;;;;;;;23.30;13.30;;;18.40;73.40;;;;;;5052732;28;20123;-64
2022/03/23 12:22:32;;;;;;;16.17;10.10;;;18.30;70.80;;;;;;5052781;28;20041;-64
2022/03/23 12:25:16;;;;;;;26.30;10.88;;;18.50;75.90;;;;;;5052563;28;20067;-63
2022/03/23 12:27:45;;;;;;;24.55;12.70;;;18.60;71.80;;;;;;5052577;28;20053;-64
2022/03/23 12:30:33;;;;;;;20.20;12.05;;;18.40;74.00;;;;;;5052680;28;20114;-64
2022/03/23 12:33:06;;;;;;;25.20;11.25;;;17.90;73.10;;;;;;5052641;28;20041;-64
2022/03/23 12:35:34;;;;;;;23.60;9.27;;;18.00;74.60;;;;;;5052542;28;20496;-64
2022/03/23 12:38:02;;;;;;;26.10;9.52;;;18.20;75.20;;;;;;5052158;28;20051;-64
2022/03/23 12:40:42;;;;;;;21.77;12.23;;;18.50;74.10;;;;;;5052016;28;20485;-66
2022/03/23 12:43:08;;;;;;;22.67;11.38;;;18.30;73.20;;;;;;5051618;28;20132;-64
2022/03/23 12:45:39;;;;;;;23.85;11.68;;;18.20;74.80;;;;;;5051598;28;20128;-64
2022/03/23 12:59:18;;;;;;;23.45;11.85;;;18.80;73.70;;;;;;5051893;28;20627;-64
2022/03/23 13:01:45;;;;;;;29.17;12.10;;;19.00;73.50;;;;;;5052220;28;20045;-64
2022/03/23 13:04:43;;;;;;;18.92;11.73;;;18.90;74.00;;;;;;5052169;28;20045;-64
2022/03/23 13:07:27;;;;;;;21.85;11.90;;;19.20;72.10;;;;;;5048644;28;20063;-64
2022/03/23 13:10:09;;;;;;;21.00;13.30;;;19.20;72.20;;;;;;5052238;28;20124;-64